sensor_id;sensor_type;location;lat;lon;timestamp;temperature;humidity
20182;DHT22;10250;50.756;6.172;2024-01-15T00:00:08;-0.50;99.90
20182;DHT22;10250;50.756;6.172;2024-01-15T00:02:09;-0.50;99.90
20182;DHT22;10250;50.756;6.172;2024-01-15T00:04:10;-0.50;99.90
20182;DHT22;10250;50.756;6.172;2024-01-15T00:06:11;-0.50;99.90
20182;DHT22;10250;50.756;6.172;2024-01-15T00:08:11;-0.50;99.90
20182;DHT22;10250;50.756;6.172;2024-01-15T00:10:12;-0.50;99.90
20182;DHT22;10250;50.756;6.172;2024-01-15T00:12:12;-0.50;99.90
20182;DHT22;10250;50.756;6.172;2024-01-15T00:14:13;-0.50;99.90
20182;DHT22;10250;50.756;6.172;2024-01-15T00:16:14;-0.50;99.90
20182;DHT22;10250;50.756;6.172;2024-01-15T00:18:15;-0.60;99.90
20182;DHT22;10250;50.756;6.172;2024-01-15T00:20:16;-0.70;99.90
20182;DHT22;10250;50.756;6.172;2024-01-15T00:22:16;-0.60;99.90
20182;DHT22;10250;50.756;6.172;2024-01-15T00:24:17;-0.60;99.90
20182;DHT22;10250;50.756;6.172;2024-01-15T00:26:18;-0.60;99.90
20182;DHT22;10250;50.756;6.172;2024-01-15T00:28:18;-0.60;99.90
20182;DHT22;10250;50.756;6.172;2024-01-15T00:30:19;-0.60;99.90
20182;DHT22;10250;50.756;6.172;2024-01-15T00:32:20;-0.60;99.90
20182;DHT22;10250;50.756;6.172;2024-01-15T00:34:20;-0.60;99.90
20182;DHT22;10250;50.756;6.172;2024-01-15T00:36:21;-0.60;99.90
20182;DHT22;10250;50.756;6.172;2024-01-15T00:38:22;-0.60;99.90
20182;DHT22;10250;50.756;6.172;2024-01-15T00:40:22;-0.60;99.90
20182;DHT22;10250;50.756;6.172;2024-01-15T00:42:23;-0.60;99.90
20182;DHT22;10250;50.756;6.172;2024-01-15T00:44:24;-0.60;99.90
20182;DHT22;10250;50.756;6.172;2024-01-15T00:46:24;-0.50;99.90
20182;DHT22;10250;50.756;6.172;2024-01-15T00:48:25;-0.50;99.90
20182;DHT22;10250;50.756;6.172;2024-01-15T00:50:25;-0.40;99.90
20182;DHT22;10250;50.756;6.172;2024-01-15T00:52:26;-0.40;99.90
20182;DHT22;10250;50.756;6.172;2024-01-15T00:54:27;-0.50;99.90
20182;DHT22;10250;50.756;6.172;2024-01-15T00:56:27;-0.50;99.90
20182;DHT22;10250;50.756;6.172;2024-01-15T00:58:28;-0.50;99.90
20182;DHT22;10250;50.756;6.172;2024-01-15T01:00:28;-0.50;99.90
20182;DHT22;10250;50.756;6.172;2024-01-15T01:02:29;-0.50;99.90
20182;DHT22;10250;50.756;6.172;2024-01-15T01:04:29;-0.50;99.90
20182;DHT22;10250;50.756;6.172;2024-01-15T01:06:30;-0.40;99.90
20182;DHT22;10250;50.756;6.172;2024-01-15T01:08:30;-0.50;99.90
20182;DHT22;10250;50.756;6.172;2024-01-15T01:10:31;-0.50;99.90
20182;DHT22;10250;50.756;6.172;2024-01-15T01:12:32;-0.40;99.90
20182;DHT22;10250;50.756;6.172;2024-01-15T01:14:32;-0.50;99.90
20182;DHT22;10250;50.756;6.172;2024-01-15T01:16:33;-0.40;99.90
20182;DHT22;10250;50.756;6.172;2024-01-15T01:18:39;-0.40;99.90
20182;DHT22;10250;50.756;6.172;2024-01-15T01:20:39;-0.40;99.90
20182;DHT22;10250;50.756;6.172;2024-01-15T01:22:40;-0.40;99.90
20182;DHT22;10250;50.756;6.172;2024-01-15T01:24:40;-0.50;99.90
20182;DHT22;10250;50.756;6.172;2024-01-15T01:26:41;-0.40;99.90
20182;DHT22;10250;50.756;6.172;2024-01-15T01:28:41;-0.30;99.90
20182;DHT22;10250;50.756;6.172;2024-01-15T01:30:42;-0.30;99.90
20182;DHT22;10250;50.756;6.172;2024-01-15T01:32:43;-0.30;99.90
20182;DHT22;10250;50.756;6.172;2024-01-15T01:34:43;-0.40;99.90
20182;DHT22;10250;50.756;6.172;2024-01-15T01:36:44;-0.40;99.90
20182;DHT22;10250;50.756;6.172;2024-01-15T01:38:44;-0.40;99.90
20182;DHT22;10250;50.756;6.172;2024-01-15T01:40:45;-0.40;99.90
20182;DHT22;10250;50.756;6.172;2024-01-15T01:42:46;-0.40;99.90
20182;DHT22;10250;50.756;6.172;2024-01-15T01:44:46;-0.30;99.90
20182;DHT22;10250;50.756;6.172;2024-01-15T01:46:47;-0.40;99.90
20182;DHT22;10250;50.756;6.172;2024-01-15T01:48:47;-0.30;99.90
20182;DHT22;10250;50.756;6.172;2024-01-15T01:50:48;-0.30;99.90
20182;DHT22;10250;50.756;6.172;2024-01-15T01:52:49;-0.30;99.90
20182;DHT22;10250;50.756;6.172;2024-01-15T01:54:52;-0.30;99.90
20182;DHT22;10250;50.756;6.172;2024-01-15T01:56:52;-0.30;99.90
20182;DHT22;10250;50.756;6.172;2024-01-15T01:58:54;-0.30;99.90
20182;DHT22;10250;50.756;6.172;2024-01-15T02:00:54;-0.30;99.90
20182;DHT22;10250;50.756;6.172;2024-01-15T02:02:55;-0.30;99.90
20182;DHT22;10250;50.756;6.172;2024-01-15T02:04:56;-0.30;99.90
20182;DHT22;10250;50.756;6.172;2024-01-15T02:06:56;-0.20;99.90
20182;DHT22;10250;50.756;6.172;2024-01-15T02:08:57;-0.20;99.90
20182;DHT22;10250;50.756;6.172;2024-01-15T02:10:58;-0.30;99.90
20182;DHT22;10250;50.756;6.172;2024-01-15T02:12:58;-0.20;99.90
20182;DHT22;10250;50.756;6.172;2024-01-15T02:14:59;-0.20;99.90
20182;DHT22;10250;50.756;6.172;2024-01-15T02:17:00;-0.20;99.90
20182;DHT22;10250;50.756;6.172;2024-01-15T02:19:00;-0.20;99.90
20182;DHT22;10250;50.756;6.172;2024-01-15T02:21:01;-0.20;99.90
20182;DHT22;10250;50.756;6.172;2024-01-15T02:23:12;-0.20;99.90
20182;DHT22;10250;50.756;6.172;2024-01-15T02:25:13;-0.20;99.90
20182;DHT22;10250;50.756;6.172;2024-01-15T02:27:14;-0.20;99.90
20182;DHT22;10250;50.756;6.172;2024-01-15T02:29:15;-0.20;99.90
20182;DHT22;10250;50.756;6.172;2024-01-15T02:31:16;-0.10;99.90
20182;DHT22;10250;50.756;6.172;2024-01-15T02:33:16;-0.20;99.90
20182;DHT22;10250;50.756;6.172;2024-01-15T02:35:17;-0.20;99.90
20182;DHT22;10250;50.756;6.172;2024-01-15T02:37:18;-0.30;99.90
20182;DHT22;10250;50.756;6.172;2024-01-15T02:39:18;-0.20;99.90
20182;DHT22;10250;50.756;6.172;2024-01-15T02:41:19;-0.20;99.90
20182;DHT22;10250;50.756;6.172;2024-01-15T02:43:19;-0.20;99.90
20182;DHT22;10250;50.756;6.172;2024-01-15T02:45:21;-0.20;99.90
20182;DHT22;10250;50.756;6.172;2024-01-15T02:47:22;-0.20;99.90
20182;DHT22;10250;50.756;6.172;2024-01-15T02:49:23;-0.20;99.90
20182;DHT22;10250;50.756;6.172;2024-01-15T02:51:23;-0.20;99.90
20182;DHT22;10250;50.756;6.172;2024-01-15T02:53:24;-0.20;99.90
20182;DHT22;10250;50.756;6.172;2024-01-15T02:55:25;-0.20;99.90
20182;DHT22;10250;50.756;6.172;2024-01-15T02:57:25;-0.20;99.90
20182;DHT22;10250;50.756;6.172;2024-01-15T02:59:26;-0.10;99.90
20182;DHT22;10250;50.756;6.172;2024-01-15T03:01:26;0.00;99.90
20182;DHT22;10250;50.756;6.172;2024-01-15T03:03:27;0.00;99.90
20182;DHT22;10250;50.756;6.172;2024-01-15T03:05:27;-0.10;99.90
20182;DHT22;10250;50.756;6.172;2024-01-15T03:07:28;-0.10;99.90
20182;DHT22;10250;50.756;6.172;2024-01-15T03:09:29;-0.10;99.90
20182;DHT22;10250;50.756;6.172;2024-01-15T03:11:29;-0.10;99.90
20182;DHT22;10250;50.756;6.172;2024-01-15T03:13:30;-0.10;99.90
20182;DHT22;10250;50.756;6.172;2024-01-15T03:15:30;-0.10;99.90
20182;DHT22;10250;50.756;6.172;2024-01-15T03:17:31;-0.10;99.90
20182;DHT22;10250;50.756;6.172;2024-01-15T03:19:34;0.00;99.90
20182;DHT22;10250;50.756;6.172;2024-01-15T03:21:35;0.00;99.90
20182;DHT22;10250;50.756;6.172;2024-01-15T03:23:35;0.00;99.90
20182;DHT22;10250;50.756;6.172;2024-01-15T03:25:36;-0.10;99.90
20182;DHT22;10250;50.756;6.172;2024-01-15T03:27:37;-0.10;99.90
20182;DHT22;10250;50.756;6.172;2024-01-15T03:29:37;-0.20;99.90
20182;DHT22;10250;50.756;6.172;2024-01-15T03:31:38;-0.10;99.90
20182;DHT22;10250;50.756;6.172;2024-01-15T03:33:38;-0.10;99.90
20182;DHT22;10250;50.756;6.172;2024-01-15T03:35:39;-0.10;99.90
20182;DHT22;10250;50.756;6.172;2024-01-15T03:37:40;-0.10;99.90
20182;DHT22;10250;50.756;6.172;2024-01-15T03:39:40;0.00;99.90
20182;DHT22;10250;50.756;6.172;2024-01-15T03:41:41;0.00;99.90
20182;DHT22;10250;50.756;6.172;2024-01-15T03:43:42;0.00;99.90
20182;DHT22;10250;50.756;6.172;2024-01-15T03:45:42;0.00;99.90
20182;DHT22;10250;50.756;6.172;2024-01-15T03:47:43;0.00;99.90
20182;DHT22;10250;50.756;6.172;2024-01-15T03:49:43;0.00;99.90
20182;DHT22;10250;50.756;6.172;2024-01-15T03:51:45;0.00;99.90
20182;DHT22;10250;50.756;6.172;2024-01-15T03:53:45;0.00;99.90
20182;DHT22;10250;50.756;6.172;2024-01-15T03:55:46;0.10;99.90
20182;DHT22;10250;50.756;6.172;2024-01-15T03:57:47;0.00;99.90
20182;DHT22;10250;50.756;6.172;2024-01-15T03:59:48;0.10;99.90
20182;DHT22;10250;50.756;6.172;2024-01-15T04:01:49;0.10;99.90
20182;DHT22;10250;50.756;6.172;2024-01-15T04:03:51;0.20;99.90
20182;DHT22;10250;50.756;6.172;2024-01-15T04:05:51;0.10;99.90
20182;DHT22;10250;50.756;6.172;2024-01-15T04:07:55;0.10;99.90
20182;DHT22;10250;50.756;6.172;2024-01-15T04:09:55;0.20;99.90
20182;DHT22;10250;50.756;6.172;2024-01-15T04:11:56;0.10;99.90
20182;DHT22;10250;50.756;6.172;2024-01-15T04:13:56;0.20;99.90
20182;DHT22;10250;50.756;6.172;2024-01-15T04:15:57;0.20;99.90
20182;DHT22;10250;50.756;6.172;2024-01-15T04:17:57;0.30;99.90
20182;DHT22;10250;50.756;6.172;2024-01-15T04:19:58;0.20;99.90
20182;DHT22;10250;50.756;6.172;2024-01-15T04:21:58;0.20;99.90
20182;DHT22;10250;50.756;6.172;2024-01-15T04:23:59;0.30;99.90
20182;DHT22;10250;50.756;6.172;2024-01-15T04:26:00;0.30;99.90
20182;DHT22;10250;50.756;6.172;2024-01-15T04:28:00;0.30;99.90
20182;DHT22;10250;50.756;6.172;2024-01-15T04:30:01;0.20;99.90
20182;DHT22;10250;50.756;6.172;2024-01-15T04:32:01;0.30;99.90
20182;DHT22;10250;50.756;6.172;2024-01-15T04:34:02;0.30;99.90
20182;DHT22;10250;50.756;6.172;2024-01-15T04:36:04;0.40;99.90
20182;DHT22;10250;50.756;6.172;2024-01-15T04:38:05;0.40;99.90
20182;DHT22;10250;50.756;6.172;2024-01-15T04:40:07;0.40;99.90
20182;DHT22;10250;50.756;6.172;2024-01-15T04:42:07;0.30;99.90
20182;DHT22;10250;50.756;6.172;2024-01-15T04:44:08;0.30;99.90
20182;DHT22;10250;50.756;6.172;2024-01-15T04:46:09;0.30;99.90
20182;DHT22;10250;50.756;6.172;2024-01-15T04:48:10;0.30;99.90
20182;DHT22;10250;50.756;6.172;2024-01-15T04:50:10;0.30;99.90
20182;DHT22;10250;50.756;6.172;2024-01-15T04:52:11;0.30;99.90
20182;DHT22;10250;50.756;6.172;2024-01-15T04:54:11;0.20;99.90
20182;DHT22;10250;50.756;6.172;2024-01-15T04:56:12;0.30;99.90
20182;DHT22;10250;50.756;6.172;2024-01-15T04:58:13;0.30;99.90
20182;DHT22;10250;50.756;6.172;2024-01-15T05:00:13;0.30;99.90
20182;DHT22;10250;50.756;6.172;2024-01-15T05:02:15;0.30;99.90
20182;DHT22;10250;50.756;6.172;2024-01-15T05:04:18;0.30;99.90
20182;DHT22;10250;50.756;6.172;2024-01-15T05:06:19;0.30;99.90
20182;DHT22;10250;50.756;6.172;2024-01-15T05:08:19;0.30;99.90
20182;DHT22;10250;50.756;6.172;2024-01-15T05:10:21;0.30;99.90
20182;DHT22;10250;50.756;6.172;2024-01-15T05:12:22;0.30;99.90
20182;DHT22;10250;50.756;6.172;2024-01-15T05:14:22;0.40;99.90
20182;DHT22;10250;50.756;6.172;2024-01-15T05:16:23;0.40;99.90
20182;DHT22;10250;50.756;6.172;2024-01-15T05:18:23;0.40;99.90
20182;DHT22;10250;50.756;6.172;2024-01-15T05:20:24;0.40;99.90
20182;DHT22;10250;50.756;6.172;2024-01-15T05:22:25;0.30;99.90
20182;DHT22;10250;50.756;6.172;2024-01-15T05:24:25;0.40;99.90
20182;DHT22;10250;50.756;6.172;2024-01-15T05:26:26;0.40;99.90
20182;DHT22;10250;50.756;6.172;2024-01-15T05:28:27;0.40;99.90
20182;DHT22;10250;50.756;6.172;2024-01-15T05:30:27;0.40;99.90
20182;DHT22;10250;50.756;6.172;2024-01-15T05:32:28;0.40;99.90
20182;DHT22;10250;50.756;6.172;2024-01-15T05:34:30;0.50;99.90
20182;DHT22;10250;50.756;6.172;2024-01-15T05:36:30;0.40;99.90
20182;DHT22;10250;50.756;6.172;2024-01-15T05:38:31;0.50;99.90
20182;DHT22;10250;50.756;6.172;2024-01-15T05:40:32;0.50;99.90
20182;DHT22;10250;50.756;6.172;2024-01-15T05:42:32;0.50;99.90
20182;DHT22;10250;50.756;6.172;2024-01-15T05:44:33;0.50;99.90
20182;DHT22;10250;50.756;6.172;2024-01-15T05:46:33;0.50;99.90
20182;DHT22;10250;50.756;6.172;2024-01-15T05:48:34;0.50;99.90
20182;DHT22;10250;50.756;6.172;2024-01-15T05:50:34;0.50;99.90
20182;DHT22;10250;50.756;6.172;2024-01-15T05:52:35;0.50;99.90
20182;DHT22;10250;50.756;6.172;2024-01-15T05:54:36;0.40;99.90
20182;DHT22;10250;50.756;6.172;2024-01-15T05:56:36;0.50;99.90
20182;DHT22;10250;50.756;6.172;2024-01-15T05:58:37;0.40;99.90
20182;DHT22;10250;50.756;6.172;2024-01-15T06:00:38;0.50;99.90
20182;DHT22;10250;50.756;6.172;2024-01-15T06:02:38;0.50;99.90
20182;DHT22;10250;50.756;6.172;2024-01-15T06:04:39;0.50;99.90
20182;DHT22;10250;50.756;6.172;2024-01-15T06:06:40;0.50;99.90
20182;DHT22;10250;50.756;6.172;2024-01-15T06:08:40;0.50;99.90
20182;DHT22;10250;50.756;6.172;2024-01-15T06:10:41;0.50;99.90
20182;DHT22;10250;50.756;6.172;2024-01-15T06:12:43;0.50;99.90
20182;DHT22;10250;50.756;6.172;2024-01-15T06:14:44;0.50;99.90
20182;DHT22;10250;50.756;6.172;2024-01-15T06:16:44;0.50;99.90
20182;DHT22;10250;50.756;6.172;2024-01-15T06:18:45;0.50;99.90
20182;DHT22;10250;50.756;6.172;2024-01-15T06:20:46;0.50;99.90
20182;DHT22;10250;50.756;6.172;2024-01-15T06:22:46;0.50;99.90
20182;DHT22;10250;50.756;6.172;2024-01-15T06:24:47;0.50;99.90
20182;DHT22;10250;50.756;6.172;2024-01-15T06:26:47;0.50;99.90
20182;DHT22;10250;50.756;6.172;2024-01-15T06:28:48;0.50;99.90
20182;DHT22;10250;50.756;6.172;2024-01-15T06:30:49;0.50;99.90
20182;DHT22;10250;50.756;6.172;2024-01-15T06:32:49;0.50;99.90
20182;DHT22;10250;50.756;6.172;2024-01-15T06:34:50;0.50;99.90
20182;DHT22;10250;50.756;6.172;2024-01-15T06:36:51;0.50;99.90
20182;DHT22;10250;50.756;6.172;2024-01-15T06:38:51;0.50;99.90
20182;DHT22;10250;50.756;6.172;2024-01-15T06:40:52;0.50;99.90
20182;DHT22;10250;50.756;6.172;2024-01-15T06:42:53;0.50;99.90
20182;DHT22;10250;50.756;6.172;2024-01-15T06:44:53;0.60;99.90
20182;DHT22;10250;50.756;6.172;2024-01-15T06:46:54;0.50;99.90
20182;DHT22;10250;50.756;6.172;2024-01-15T06:48:57;0.50;99.90
20182;DHT22;10250;50.756;6.172;2024-01-15T06:50:58;0.50;99.90
20182;DHT22;10250;50.756;6.172;2024-01-15T06:52:58;0.50;99.90
20182;DHT22;10250;50.756;6.172;2024-01-15T06:54:59;0.50;99.90
20182;DHT22;10250;50.756;6.172;2024-01-15T06:56:59;0.50;99.90
20182;DHT22;10250;50.756;6.172;2024-01-15T06:59:00;0.40;99.90
20182;DHT22;10250;50.756;6.172;2024-01-15T07:01:01;0.50;99.90
20182;DHT22;10250;50.756;6.172;2024-01-15T07:03:02;0.50;99.90
20182;DHT22;10250;50.756;6.172;2024-01-15T07:05:03;0.50;99.90
20182;DHT22;10250;50.756;6.172;2024-01-15T07:07:05;0.50;99.90
20182;DHT22;10250;50.756;6.172;2024-01-15T07:09:06;0.50;99.90
20182;DHT22;10250;50.756;6.172;2024-01-15T07:11:07;0.50;99.90
20182;DHT22;10250;50.756;6.172;2024-01-15T07:13:08;0.50;99.90
20182;DHT22;10250;50.756;6.172;2024-01-15T07:15:09;0.40;99.90
20182;DHT22;10250;50.756;6.172;2024-01-15T07:17:09;0.50;99.90
20182;DHT22;10250;50.756;6.172;2024-01-15T07:19:11;0.40;99.90
20182;DHT22;10250;50.756;6.172;2024-01-15T07:21:11;0.40;99.90
20182;DHT22;10250;50.756;6.172;2024-01-15T07:23:12;0.40;99.90
20182;DHT22;10250;50.756;6.172;2024-01-15T07:25:12;0.40;99.90
20182;DHT22;10250;50.756;6.172;2024-01-15T07:27:13;0.40;99.90
20182;DHT22;10250;50.756;6.172;2024-01-15T07:29:14;0.50;99.90
20182;DHT22;10250;50.756;6.172;2024-01-15T07:31:16;0.50;99.90
20182;DHT22;10250;50.756;6.172;2024-01-15T07:33:16;0.40;99.90
20182;DHT22;10250;50.756;6.172;2024-01-15T07:35:17;0.50;99.90
20182;DHT22;10250;50.756;6.172;2024-01-15T07:37:17;0.50;99.90
20182;DHT22;10250;50.756;6.172;2024-01-15T07:39:18;0.50;99.90
20182;DHT22;10250;50.756;6.172;2024-01-15T07:41:18;0.50;99.90
20182;DHT22;10250;50.756;6.172;2024-01-15T07:43:19;0.50;99.90
20182;DHT22;10250;50.756;6.172;2024-01-15T07:45:20;0.50;99.90
20182;DHT22;10250;50.756;6.172;2024-01-15T07:47:21;0.50;99.90
20182;DHT22;10250;50.756;6.172;2024-01-15T07:49:21;0.50;99.90
20182;DHT22;10250;50.756;6.172;2024-01-15T07:51:24;0.50;99.90
20182;DHT22;10250;50.756;6.172;2024-01-15T07:53:25;0.50;99.90
20182;DHT22;10250;50.756;6.172;2024-01-15T07:55:25;0.60;99.90
20182;DHT22;10250;50.756;6.172;2024-01-15T07:57:26;0.50;99.90
20182;DHT22;10250;50.756;6.172;2024-01-15T07:59:27;0.50;99.90
20182;DHT22;10250;50.756;6.172;2024-01-15T08:01:28;0.60;99.90
20182;DHT22;10250;50.756;6.172;2024-01-15T08:03:28;0.60;99.90
20182;DHT22;10250;50.756;6.172;2024-01-15T08:05:29;0.50;99.90
20182;DHT22;10250;50.756;6.172;2024-01-15T08:07:29;0.50;99.90
20182;DHT22;10250;50.756;6.172;2024-01-15T08:09:30;0.50;99.90
20182;DHT22;10250;50.756;6.172;2024-01-15T08:11:30;0.50;99.90
20182;DHT22;10250;50.756;6.172;2024-01-15T08:13:31;0.50;99.90
20182;DHT22;10250;50.756;6.172;2024-01-15T08:15:31;0.50;99.90
20182;DHT22;10250;50.756;6.172;2024-01-15T08:17:32;0.50;99.90
20182;DHT22;10250;50.756;6.172;2024-01-15T08:19:33;0.50;99.90
20182;DHT22;10250;50.756;6.172;2024-01-15T08:21:33;0.50;99.90
20182;DHT22;10250;50.756;6.172;2024-01-15T08:23:34;0.50;99.90
20182;DHT22;10250;50.756;6.172;2024-01-15T08:25:35;0.50;99.90
20182;DHT22;10250;50.756;6.172;2024-01-15T08:27:35;0.50;99.90
20182;DHT22;10250;50.756;6.172;2024-01-15T08:29:36;0.50;99.90
20182;DHT22;10250;50.756;6.172;2024-01-15T08:31:37;0.50;99.90
20182;DHT22;10250;50.756;6.172;2024-01-15T08:33:37;0.60;99.90
20182;DHT22;10250;50.756;6.172;2024-01-15T08:35:38;0.60;99.90
20182;DHT22;10250;50.756;6.172;2024-01-15T08:37:38;0.60;99.90
20182;DHT22;10250;50.756;6.172;2024-01-15T08:39:39;0.60;99.90
20182;DHT22;10250;50.756;6.172;2024-01-15T08:41:40;0.70;99.90
20182;DHT22;10250;50.756;6.172;2024-01-15T08:43:40;0.70;99.90
20182;DHT22;10250;50.756;6.172;2024-01-15T08:45:41;0.70;99.90
20182;DHT22;10250;50.756;6.172;2024-01-15T08:47:41;0.70;99.90
20182;DHT22;10250;50.756;6.172;2024-01-15T08:49:42;0.70;99.90
20182;DHT22;10250;50.756;6.172;2024-01-15T08:51:44;0.70;99.90
20182;DHT22;10250;50.756;6.172;2024-01-15T08:53:45;0.70;99.90
20182;DHT22;10250;50.756;6.172;2024-01-15T08:55:45;0.70;99.90
20182;DHT22;10250;50.756;6.172;2024-01-15T08:57:46;0.70;99.90
20182;DHT22;10250;50.756;6.172;2024-01-15T08:59:46;0.70;99.90
20182;DHT22;10250;50.756;6.172;2024-01-15T09:01:47;0.70;99.90
20182;DHT22;10250;50.756;6.172;2024-01-15T09:03:47;0.80;99.90
20182;DHT22;10250;50.756;6.172;2024-01-15T09:05:48;0.80;99.90
20182;DHT22;10250;50.756;6.172;2024-01-15T09:07:50;0.80;99.90
20182;DHT22;10250;50.756;6.172;2024-01-15T09:09:53;0.70;99.90
20182;DHT22;10250;50.756;6.172;2024-01-15T09:11:54;0.80;99.90
20182;DHT22;10250;50.756;6.172;2024-01-15T09:13:54;0.70;99.90
20182;DHT22;10250;50.756;6.172;2024-01-15T09:15:55;0.70;99.90
20182;DHT22;10250;50.756;6.172;2024-01-15T09:17:55;0.70;99.90
20182;DHT22;10250;50.756;6.172;2024-01-15T09:19:58;0.70;99.90
20182;DHT22;10250;50.756;6.172;2024-01-15T09:21:58;0.80;99.90
20182;DHT22;10250;50.756;6.172;2024-01-15T09:23:59;0.80;99.90
20182;DHT22;10250;50.756;6.172;2024-01-15T09:25:59;0.80;99.90
20182;DHT22;10250;50.756;6.172;2024-01-15T09:28:00;0.80;99.90
20182;DHT22;10250;50.756;6.172;2024-01-15T09:30:01;0.70;99.90
20182;DHT22;10250;50.756;6.172;2024-01-15T09:32:02;0.60;99.90
20182;DHT22;10250;50.756;6.172;2024-01-15T09:34:03;0.70;99.90
20182;DHT22;10250;50.756;6.172;2024-01-15T09:36:04;0.60;99.90
20182;DHT22;10250;50.756;6.172;2024-01-15T09:38:05;0.60;99.90
20182;DHT22;10250;50.756;6.172;2024-01-15T09:40:06;0.60;99.90
20182;DHT22;10250;50.756;6.172;2024-01-15T09:42:09;0.60;99.90
20182;DHT22;10250;50.756;6.172;2024-01-15T09:44:12;0.60;99.90
20182;DHT22;10250;50.756;6.172;2024-01-15T09:46:13;0.60;99.90
20182;DHT22;10250;50.756;6.172;2024-01-15T09:48:13;0.60;99.90
20182;DHT22;10250;50.756;6.172;2024-01-15T09:50:14;0.60;99.90
20182;DHT22;10250;50.756;6.172;2024-01-15T09:52:16;0.60;99.90
20182;DHT22;10250;50.756;6.172;2024-01-15T09:54:19;0.60;99.90
20182;DHT22;10250;50.756;6.172;2024-01-15T09:56:20;0.50;99.90
20182;DHT22;10250;50.756;6.172;2024-01-15T09:58:20;0.60;99.90
20182;DHT22;10250;50.756;6.172;2024-01-15T10:00:22;0.50;99.90
20182;DHT22;10250;50.756;6.172;2024-01-15T10:02:23;0.50;99.90
20182;DHT22;10250;50.756;6.172;2024-01-15T10:04:24;0.50;99.90
20182;DHT22;10250;50.756;6.172;2024-01-15T10:06:26;0.50;99.90
20182;DHT22;10250;50.756;6.172;2024-01-15T10:08:30;0.50;99.90
20182;DHT22;10250;50.756;6.172;2024-01-15T10:10:31;0.50;99.90
20182;DHT22;10250;50.756;6.172;2024-01-15T10:12:32;0.50;99.90
20182;DHT22;10250;50.756;6.172;2024-01-15T10:14:33;0.50;99.90
20182;DHT22;10250;50.756;6.172;2024-01-15T10:16:33;0.50;99.90
20182;DHT22;10250;50.756;6.172;2024-01-15T10:18:34;0.50;99.90
20182;DHT22;10250;50.756;6.172;2024-01-15T10:20:36;0.50;99.90
20182;DHT22;10250;50.756;6.172;2024-01-15T10:22:40;0.50;99.90
20182;DHT22;10250;50.756;6.172;2024-01-15T10:24:45;0.50;99.90
20182;DHT22;10250;50.756;6.172;2024-01-15T10:26:47;0.60;99.90
20182;DHT22;10250;50.756;6.172;2024-01-15T10:28:50;0.50;99.90
20182;DHT22;10250;50.756;6.172;2024-01-15T10:30:55;0.50;99.90
20182;DHT22;10250;50.756;6.172;2024-01-15T10:33:03;0.60;99.90
20182;DHT22;10250;50.756;6.172;2024-01-15T10:35:04;0.60;99.90
20182;DHT22;10250;50.756;6.172;2024-01-15T10:37:04;0.70;99.90
20182;DHT22;10250;50.756;6.172;2024-01-15T10:39:07;0.70;99.90
20182;DHT22;10250;50.756;6.172;2024-01-15T10:41:08;0.60;99.90
20182;DHT22;10250;50.756;6.172;2024-01-15T10:43:09;0.60;99.90
20182;DHT22;10250;50.756;6.172;2024-01-15T10:45:09;0.70;99.90
20182;DHT22;10250;50.756;6.172;2024-01-15T10:47:10;0.70;99.90
20182;DHT22;10250;50.756;6.172;2024-01-15T10:49:11;0.70;99.90
20182;DHT22;10250;50.756;6.172;2024-01-15T10:51:12;0.70;99.90
20182;DHT22;10250;50.756;6.172;2024-01-15T10:53:16;0.70;99.90
20182;DHT22;10250;50.756;6.172;2024-01-15T10:55:17;0.80;99.90
20182;DHT22;10250;50.756;6.172;2024-01-15T10:57:19;0.80;99.90
20182;DHT22;10250;50.756;6.172;2024-01-15T10:59:21;0.80;99.90
20182;DHT22;10250;50.756;6.172;2024-01-15T11:01:23;0.80;99.90
20182;DHT22;10250;50.756;6.172;2024-01-15T11:03:24;0.80;99.90
20182;DHT22;10250;50.756;6.172;2024-01-15T11:05:25;0.80;99.90
20182;DHT22;10250;50.756;6.172;2024-01-15T11:07:26;0.90;99.90
20182;DHT22;10250;50.756;6.172;2024-01-15T11:09:27;0.90;99.90
20182;DHT22;10250;50.756;6.172;2024-01-15T11:11:27;1.00;99.90
20182;DHT22;10250;50.756;6.172;2024-01-15T11:15:31;1.00;99.90
20182;DHT22;10250;50.756;6.172;2024-01-15T11:17:58;1.00;99.90
20182;DHT22;10250;50.756;6.172;2024-01-15T11:20:00;1.00;99.90
20182;DHT22;10250;50.756;6.172;2024-01-15T11:22:01;1.00;99.90
20182;DHT22;10250;50.756;6.172;2024-01-15T11:24:02;1.10;99.90
20182;DHT22;10250;50.756;6.172;2024-01-15T11:26:02;1.00;99.90
20182;DHT22;10250;50.756;6.172;2024-01-15T11:28:03;1.00;99.90
20182;DHT22;10250;50.756;6.172;2024-01-15T11:30:08;1.10;99.90
20182;DHT22;10250;50.756;6.172;2024-01-15T11:32:10;1.10;99.90
20182;DHT22;10250;50.756;6.172;2024-01-15T11:34:11;1.10;99.90
20182;DHT22;10250;50.756;6.172;2024-01-15T11:36:12;1.00;99.90
20182;DHT22;10250;50.756;6.172;2024-01-15T11:38:26;1.00;99.90
20182;DHT22;10250;50.756;6.172;2024-01-15T11:42:36;1.00;99.90
20182;DHT22;10250;50.756;6.172;2024-01-15T11:44:37;1.10;99.90
20182;DHT22;10250;50.756;6.172;2024-01-15T11:46:47;1.00;99.90
20182;DHT22;10250;50.756;6.172;2024-01-15T11:48:54;1.00;99.90
20182;DHT22;10250;50.756;6.172;2024-01-15T11:51:00;1.00;99.90
20182;DHT22;10250;50.756;6.172;2024-01-15T11:53:03;1.10;99.90
20182;DHT22;10250;50.756;6.172;2024-01-15T11:55:12;1.10;99.90
20182;DHT22;10250;50.756;6.172;2024-01-15T11:57:25;1.20;99.90
20182;DHT22;10250;50.756;6.172;2024-01-15T11:59:27;1.20;99.90
20182;DHT22;10250;50.756;6.172;2024-01-15T12:01:28;1.10;99.90
20182;DHT22;10250;50.756;6.172;2024-01-15T12:03:32;1.10;99.90
20182;DHT22;10250;50.756;6.172;2024-01-15T12:05:37;1.10;99.90
20182;DHT22;10250;50.756;6.172;2024-01-15T12:07:38;1.20;99.90
20182;DHT22;10250;50.756;6.172;2024-01-15T12:09:43;1.30;99.90
20182;DHT22;10250;50.756;6.172;2024-01-15T12:11:50;1.20;99.90
20182;DHT22;10250;50.756;6.172;2024-01-15T12:13:51;1.30;99.90
20182;DHT22;10250;50.756;6.172;2024-01-15T12:15:54;1.20;99.90
20182;DHT22;10250;50.756;6.172;2024-01-15T12:17:59;1.20;99.90
20182;DHT22;10250;50.756;6.172;2024-01-15T12:20:00;1.20;99.90
20182;DHT22;10250;50.756;6.172;2024-01-15T12:22:01;1.20;99.90
20182;DHT22;10250;50.756;6.172;2024-01-15T12:24:02;1.20;99.90
20182;DHT22;10250;50.756;6.172;2024-01-15T12:26:02;1.30;99.90
20182;DHT22;10250;50.756;6.172;2024-01-15T12:28:03;1.30;99.90
20182;DHT22;10250;50.756;6.172;2024-01-15T12:30:05;1.30;99.90
20182;DHT22;10250;50.756;6.172;2024-01-15T12:32:05;1.30;99.90
20182;DHT22;10250;50.756;6.172;2024-01-15T12:34:07;1.20;99.90
20182;DHT22;10250;50.756;6.172;2024-01-15T12:36:07;1.20;99.90
20182;DHT22;10250;50.756;6.172;2024-01-15T12:38:10;1.20;99.90
20182;DHT22;10250;50.756;6.172;2024-01-15T12:40:12;1.20;99.90
20182;DHT22;10250;50.756;6.172;2024-01-15T12:42:16;1.30;99.90
20182;DHT22;10250;50.756;6.172;2024-01-15T12:44:17;1.10;99.90
20182;DHT22;10250;50.756;6.172;2024-01-15T12:46:17;1.10;99.90
20182;DHT22;10250;50.756;6.172;2024-01-15T12:48:19;1.20;99.90
20182;DHT22;10250;50.756;6.172;2024-01-15T12:50:24;1.20;99.90
20182;DHT22;10250;50.756;6.172;2024-01-15T12:52:29;1.20;99.90
20182;DHT22;10250;50.756;6.172;2024-01-15T12:54:30;1.10;99.90
20182;DHT22;10250;50.756;6.172;2024-01-15T12:56:30;1.20;99.90
20182;DHT22;10250;50.756;6.172;2024-01-15T12:58:31;1.10;99.90